Time;durP1;ratioP1;P1;durP2;ratioP2;P2;SDS_P1;SDS_P2;PMS_P1;PMS_P2;Temp;Humidity;BMP_temperature;BMP_pressure;BME280_temperature;BME280_humidity;BME280_pressure;Samples;Min_cycle;Max_cycle;Signal;HPM_P1;HPM_P2
2023/04/20 00:01:53;;;;;;;15.18;5.57;;;20.10;78.40;;;;;;4954758;28;20058;-76
2023/04/20 00:04:19;;;;;;;13.00;5.55;;;20.10;78.40;;;;;;4952453;29;20059;-76
2023/04/20 00:06:44;;;;;;;14.45;5.47;;;20.00;78.30;;;;;;4950605;29;20114;-76
2023/04/20 00:09:12;;;;;;;16.77;5.07;;;20.00;78.30;;;;;;4951616;28;20039;-75
2023/04/20 00:11:38;;;;;;;13.05;5.70;;;20.00;78.40;;;;;;4952262;28;20023;-76
2023/04/20 00:14:04;;;;;;;11.70;5.20;;;20.00;78.30;;;;;;4951851;28;20031;-76
2023/04/20 00:16:29;;;;;;;17.67;5.57;;;20.00;78.40;;;;;;4951861;29;20023;-74
2023/04/20 00:18:55;;;;;;;16.38;5.70;;;20.00;78.40;;;;;;4952042;28;20019;-76
2023/04/20 00:21:22;;;;;;;15.57;5.65;;;20.00;78.40;;;;;;4952350;29;20146;-75
2023/04/20 00:23:49;;;;;;;12.65;5.22;;;20.00;78.50;;;;;;4953453;28;20535;-75
2023/04/20 00:26:15;;;;;;;14.40;5.25;;;20.00;78.50;;;;;;4953084;28;20113;-76
2023/04/20 00:28:41;;;;;;;13.13;4.88;;;20.00;78.50;;;;;;4953978;28;20062;-76
2023/04/20 00:31:07;;;;;;;11.50;5.03;;;20.00;78.40;;;;;;4954336;28;20102;-76
2023/04/20 00:33:32;;;;;;;18.70;6.03;;;20.00;78.50;;;;;;4954008;29;20552;-75
2023/04/20 00:35:58;;;;;;;12.40;4.80;;;20.00;78.50;;;;;;4953974;29;20033;-76
2023/04/20 00:38:23;;;;;;;13.10;5.40;;;20.00;78.40;;;;;;4953619;28;20457;-76
2023/04/20 00:40:52;;;;;;;11.55;5.25;;;19.90;79.20;;;;;;4953939;29;20389;-76
2023/04/20 00:43:18;;;;;;;17.38;5.30;;;19.90;78.40;;;;;;4951545;28;20505;-76
2023/04/20 00:45:45;;;;;;;12.25;5.22;;;19.90;78.40;;;;;;4952193;29;20094;-74
2023/04/20 00:48:11;;;;;;;17.58;5.40;;;19.90;78.40;;;;;;4953220;28;20035;-76
2023/04/20 00:50:38;;;;;;;13.93;5.55;;;19.90;78.40;;;;;;4953788;29;20043;-76
2023/04/20 00:53:05;;;;;;;14.02;5.65;;;19.90;78.40;;;;;;4953755;28;20121;-76
2023/04/20 00:55:31;;;;;;;14.48;4.80;;;19.90;78.40;;;;;;4951914;28;20027;-75
2023/04/20 00:57:57;;;;;;;14.52;5.13;;;19.90;78.50;;;;;;4952187;28;20031;-76
2023/04/20 01:00:24;;;;;;;12.20;5.00;;;19.90;78.40;;;;;;4953578;28;20501;-76
2023/04/20 01:02:50;;;;;;;12.38;6.00;;;19.90;78.50;;;;;;4952044;28;20030;-76
2023/04/20 01:05:16;;;;;;;12.60;5.03;;;19.90;78.40;;;;;;4952118;29;20062;-76
2023/04/20 01:07:41;;;;;;;12.45;4.85;;;19.90;79.20;;;;;;4953159;28;20055;-76
2023/04/20 01:10:08;;;;;;;12.93;5.18;;;19.90;78.40;;;;;;4953753;29;20504;-75
2023/04/20 01:12:34;;;;;;;14.98;4.75;;;19.90;78.40;;;;;;4952422;29;20073;-76
2023/04/20 01:15:00;;;;;;;12.38;4.80;;;19.80;78.40;;;;;;4946860;28;20505;-76
2023/04/20 01:17:26;;;;;;;12.32;5.35;;;19.90;78.40;;;;;;4953191;28;20019;-77
2023/04/20 01:19:52;;;;;;;13.57;4.78;;;19.80;78.40;;;;;;4953041;28;20030;-76
2023/04/20 01:22:19;;;;;;;13.70;4.97;;;19.80;78.30;;;;;;4953254;29;20047;-76
2023/04/20 01:24:45;;;;;;;14.18;5.53;;;19.80;78.40;;;;;;4952053;29;20543;-77
2023/04/20 01:27:12;;;;;;;9.00;4.63;;;19.80;78.40;;;;;;4952400;28;20031;-77
2023/04/20 01:29:38;;;;;;;14.10;5.03;;;19.80;78.40;;;;;;4952374;28;20019;-76
2023/04/20 01:32:04;;;;;;;14.07;5.10;;;19.80;78.40;;;;;;4951683;29;20397;-76
2023/04/20 01:34:30;;;;;;;12.57;4.85;;;19.80;78.40;;;;;;4951932;29;20027;-76
2023/04/20 01:36:56;;;;;;;14.80;4.90;;;19.80;78.40;;;;;;4952739;29;20031;-74
2023/04/20 01:39:21;;;;;;;13.80;5.68;;;19.80;78.50;;;;;;4949748;28;20027;-75
2023/04/20 01:41:47;;;;;;;11.82;4.97;;;19.80;78.40;;;;;;4954217;28;20030;-76
2023/04/20 01:44:13;;;;;;;11.63;4.55;;;19.80;78.50;;;;;;4948714;29;20514;-76
2023/04/20 01:46:39;;;;;;;13.40;4.63;;;19.80;78.40;;;;;;4947951;28;20397;-75
2023/04/20 01:49:05;;;;;;;11.57;4.50;;;19.80;78.40;;;;;;4950317;28;20568;-76
2023/04/20 01:51:32;;;;;;;11.48;4.80;;;19.80;78.40;;;;;;4943357;29;20437;-75
2023/04/20 01:53:59;;;;;;;9.55;4.25;;;19.80;78.50;;;;;;4947074;29;20376;-76
2023/04/20 01:56:24;;;;;;;13.45;5.03;;;19.70;78.40;;;;;;4948581;29;20024;-77
2023/04/20 01:58:50;;;;;;;10.45;5.13;;;19.70;78.50;;;;;;4949559;28;20110;-76
2023/04/20 02:01:16;;;;;;;11.90;4.72;;;19.70;78.40;;;;;;4950585;29;20019;-74
2023/04/20 02:03:41;;;;;;;11.32;4.80;;;19.70;78.50;;;;;;4951135;29;20489;-76
2023/04/20 02:06:07;;;;;;;9.40;4.10;;;19.70;78.40;;;;;;4952540;29;20093;-75
2023/04/20 02:08:33;;;;;;;9.73;4.88;;;19.70;78.40;;;;;;4952267;28;20489;-76
2023/04/20 02:10:59;;;;;;;8.98;4.20;;;19.70;78.40;;;;;;4950449;29;20098;-75
2023/04/20 02:13:25;;;;;;;9.70;4.50;;;19.70;78.50;;;;;;4951344;29;20114;-76
2023/04/20 02:15:50;;;;;;;11.63;4.55;;;19.70;78.50;;;;;;4950915;29;20023;-76
2023/04/20 02:18:16;;;;;;;9.00;4.28;;;19.70;78.40;;;;;;4951927;28;20085;-76
2023/04/20 02:20:43;;;;;;;12.98;5.05;;;19.70;78.50;;;;;;4952402;29;20103;-74
2023/04/20 02:23:08;;;;;;;9.68;4.47;;;19.70;78.50;;;;;;4952479;28;20030;-76
2023/04/20 02:25:34;;;;;;;11.38;5.10;;;19.70;78.50;;;;;;4949891;29;20027;-75
2023/04/20 02:27:59;;;;;;;11.48;5.38;;;19.70;78.50;;;;;;4951920;28;20032;-76
2023/04/20 02:30:25;;;;;;;10.98;4.80;;;19.70;78.50;;;;;;4952043;29;20673;-73
2023/04/20 02:32:51;;;;;;;9.73;4.47;;;19.70;78.50;;;;;;4951901;28;20019;-75
2023/04/20 02:35:17;;;;;;;10.20;3.83;;;19.60;78.50;;;;;;4952161;28;20481;-74
2023/04/20 02:37:43;;;;;;;8.32;4.10;;;19.60;78.60;;;;;;4950617;28;20086;-75
2023/04/20 02:40:09;;;;;;;10.05;4.50;;;19.70;78.60;;;;;;4951445;28;20023;-76
2023/04/20 02:42:34;;;;;;;9.88;4.00;;;19.60;78.50;;;;;;4950584;29;20042;-77
2023/04/20 02:45:00;;;;;;;9.35;3.70;;;19.60;78.50;;;;;;4951060;29;20027;-75
2023/04/20 02:47:26;;;;;;;9.60;3.90;;;19.60;78.50;;;;;;4949506;28;20519;-75
2023/04/20 02:49:51;;;;;;;13.73;4.55;;;19.60;78.40;;;;;;4952247;29;20397;-75
2023/04/20 02:52:17;;;;;;;8.65;4.18;;;19.60;78.40;;;;;;4951734;29;20034;-76
2023/04/20 02:54:43;;;;;;;7.47;4.13;;;19.60;78.50;;;;;;4951976;29;20030;-77
2023/04/20 02:57:10;;;;;;;10.82;4.32;;;19.60;78.50;;;;;;4951905;29;20020;-76
2023/04/20 02:59:36;;;;;;;11.07;4.25;;;19.60;78.50;;;;;;4952186;28;20396;-76
2023/04/20 03:02:02;;;;;;;7.95;3.90;;;19.60;78.50;;;;;;4951966;28;20019;-75
2023/04/20 03:04:27;;;;;;;7.90;4.20;;;19.60;78.50;;;;;;4951701;29;20408;-77
2023/04/20 03:06:53;;;;;;;10.40;4.20;;;19.60;78.50;;;;;;4948692;29;20616;-75
2023/04/20 03:09:19;;;;;;;9.73;4.18;;;19.60;78.50;;;;;;4951895;28;20031;-76
2023/04/20 03:11:44;;;;;;;10.20;4.03;;;19.60;78.50;;;;;;4952101;28;20023;-75
2023/04/20 03:14:10;;;;;;;10.02;4.70;;;19.60;78.50;;;;;;4954446;29;20027;-76
2023/04/20 03:16:36;;;;;;;9.32;4.05;;;19.60;78.60;;;;;;4955406;28;20023;-74
2023/04/20 03:19:03;;;;;;;11.10;4.75;;;19.50;78.50;;;;;;4955396;28;20063;-76
2023/04/20 03:21:28;;;;;;;7.57;4.22;;;19.60;78.50;;;;;;4955528;28;20023;-76
2023/04/20 03:23:54;;;;;;;10.32;4.40;;;19.50;78.50;;;;;;4954102;29;20035;-75
2023/04/20 03:26:20;;;;;;;11.25;4.53;;;19.50;78.50;;;;;;4955044;29;20378;-74
2023/04/20 03:28:45;;;;;;;10.00;4.82;;;19.50;78.50;;;;;;4954277;28;20027;-76
2023/04/20 03:31:11;;;;;;;9.60;3.75;;;19.50;78.50;;;;;;4955300;29;20488;-76
2023/04/20 03:33:36;;;;;;;7.93;4.10;;;19.50;78.50;;;;;;4953839;29;20019;-75
2023/04/20 03:36:04;;;;;;;13.45;4.82;;;19.50;78.50;;;;;;4950914;29;20477;-77
2023/04/20 03:38:30;;;;;;;11.57;4.00;;;19.50;78.50;;;;;;4955088;28;20042;-76
2023/04/20 03:40:55;;;;;;;7.47;3.95;;;19.50;78.50;;;;;;4953113;29;20477;-76
2023/04/20 03:43:21;;;;;;;10.55;4.65;;;19.50;78.30;;;;;;4953619;29;20484;-75
2023/04/20 03:45:46;;;;;;;8.35;4.18;;;19.60;78.40;;;;;;4953218;29;20512;-76
2023/04/20 03:48:12;;;;;;;7.38;3.70;;;19.60;78.40;;;;;;4951402;29;20493;-76
2023/04/20 03:50:37;;;;;;;8.27;4.13;;;19.70;78.30;;;;;;4948560;28;20051;-77
2023/04/20 03:53:03;;;;;;;8.40;3.72;;;19.70;78.20;;;;;;4953511;29;20030;-77
2023/04/20 03:55:28;;;;;;;8.70;4.00;;;19.80;78.20;;;;;;4950439;29;20062;-77
2023/04/20 03:57:54;;;;;;;6.93;3.50;;;19.80;78.20;;;;;;4952973;29;20139;-76
2023/04/20 04:00:20;;;;;;;8.23;3.63;;;19.90;78.10;;;;;;4952662;29;20047;-77
2023/04/20 04:02:45;;;;;;;8.80;3.95;;;19.90;78.10;;;;;;4953021;29;20035;-74
2023/04/20 04:05:11;;;;;;;9.23;3.53;;;19.90;78.00;;;;;;4953430;29;20127;-76
2023/04/20 04:07:36;;;;;;;9.13;3.42;;;20.00;78.10;;;;;;4948967;29;20024;-77
2023/04/20 04:10:04;;;;;;;9.48;3.92;;;19.90;78.00;;;;;;4951646;29;20015;-77
2023/04/20 04:12:30;;;;;;;6.35;3.45;;;20.00;78.80;;;;;;4952835;28;20041;-76
2023/04/20 04:14:55;;;;;;;9.23;3.88;;;20.00;78.00;;;;;;4954518;29;20481;-76
2023/04/20 04:17:21;;;;;;;7.45;3.17;;;20.00;78.00;;;;;;4952365;29;20065;-77
2023/04/20 04:19:46;;;;;;;6.82;3.38;;;20.10;78.10;;;;;;4954565;29;20580;-77
2023/04/20 04:22:12;;;;;;;7.10;3.63;;;20.00;78.00;;;;;;4953675;28;20062;-78
2023/04/20 04:24:38;;;;;;;7.80;3.20;;;20.10;78.00;;;;;;4953793;29;20034;-77
2023/04/20 04:27:06;;;;;;;9.35;3.53;;;20.10;77.90;;;;;;4953904;29;20172;-76
2023/04/20 04:29:37;;;;;;;7.82;3.95;;;20.20;78.00;;;;;;4954196;28;20022;-79
2023/04/20 04:32:04;;;;;;;5.50;3.00;;;20.20;78.00;;;;;;4951136;29;20106;-77
2023/04/20 04:34:33;;;;;;;15.98;3.88;;;20.20;77.90;;;;;;4953504;29;20421;-78
2023/04/20 04:36:59;;;;;;;23.60;4.80;;;20.30;78.20;;;;;;4967663;28;20086;-79
2023/04/20 04:39:26;;;;;;;23.38;3.80;;;20.40;78.40;;;;;;4947939;28;20040;-77
2023/04/20 04:41:52;;;;;;;11.63;3.55;;;20.40;78.30;;;;;;4950958;29;20037;-77
2023/04/20 04:44:17;;;;;;;12.00;3.60;;;20.30;78.30;;;;;;4946670;29;20027;-78
2023/04/20 04:46:44;;;;;;;20.70;3.55;;;20.30;78.30;;;;;;4948985;29;20130;-77
2023/04/20 04:49:10;;;;;;;13.32;2.97;;;20.30;78.20;;;;;;4945072;29;20062;-77
2023/04/20 04:51:36;;;;;;;12.65;3.45;;;20.30;78.30;;;;;;4952480;29;20031;-77
2023/04/20 04:54:01;;;;;;;10.88;4.00;;;20.30;78.20;;;;;;4953941;29;20409;-77
2023/04/20 04:56:27;;;;;;;17.42;4.32;;;20.30;78.20;;;;;;4953220;29;20024;-77
2023/04/20 04:58:53;;;;;;;29.52;5.75;;;20.30;78.30;;;;;;4951908;28;20034;-79
2023/04/20 05:01:18;;;;;;;49.05;7.05;;;20.30;78.30;;;;;;4952597;29;20031;-74
2023/04/20 05:03:44;;;;;;;56.28;8.60;;;20.30;78.40;;;;;;4951304;29;20043;-75
2023/04/20 05:06:10;;;;;;;43.28;8.70;;;20.40;78.40;;;;;;4951945;29;20055;-75
2023/04/20 05:08:35;;;;;;;54.53;9.45;;;20.40;78.40;;;;;;4950237;28;20019;-75
2023/04/20 05:11:01;;;;;;;58.55;9.50;;;20.40;78.40;;;;;;4952263;29;20038;-74
2023/04/20 05:13:26;;;;;;;77.93;10.07;;;20.50;79.10;;;;;;4952005;29;20019;-76
2023/04/20 05:15:52;;;;;;;53.90;10.23;;;20.50;78.30;;;;;;4949029;29;20027;-75
2023/04/20 05:18:17;;;;;;;45.95;9.05;;;20.50;78.30;;;;;;4950066;28;20027;-75
2023/04/20 05:20:43;;;;;;;50.10;9.68;;;20.50;78.30;;;;;;4948270;29;20123;-74
2023/04/20 05:23:08;;;;;;;54.55;9.35;;;20.50;78.20;;;;;;4951113;29;20031;-74
2023/04/20 05:25:34;;;;;;;48.63;9.10;;;20.50;78.20;;;;;;4944444;29;20046;-76
2023/04/20 05:28:00;;;;;;;49.45;8.15;;;20.50;78.00;;;;;;4951634;28;20024;-76
2023/04/20 05:30:25;;;;;;;52.03;8.18;;;20.50;78.20;;;;;;4944040;29;20020;-76
2023/04/20 05:32:51;;;;;;;35.90;7.07;;;20.50;78.40;;;;;;4946320;29;20102;-76
2023/04/20 05:35:16;;;;;;;51.13;8.25;;;20.60;78.50;;;;;;4949139;28;20122;-76
2023/04/20 05:37:42;;;;;;;42.08;6.82;;;20.50;78.50;;;;;;4942651;29;20031;-76
2023/04/20 05:40:08;;;;;;;38.92;8.02;;;20.50;78.50;;;;;;4950014;29;20058;-76
2023/04/20 05:42:34;;;;;;;36.55;6.57;;;20.60;78.60;;;;;;4946730;28;20030;-76
2023/04/20 05:44:59;;;;;;;45.00;6.78;;;20.50;78.50;;;;;;4947375;29;20050;-74
2023/04/20 05:47:26;;;;;;;32.53;7.10;;;20.60;78.70;;;;;;4944328;29;20063;-73
2023/04/20 05:49:52;;;;;;;28.48;5.97;;;20.60;78.70;;;;;;4949441;29;20106;-74
2023/04/20 05:52:18;;;;;;;39.55;7.85;;;20.60;79.60;;;;;;4944705;28;20023;-74
2023/04/20 05:54:43;;;;;;;26.77;6.55;;;20.60;79.10;;;;;;4949151;29;20031;-76
2023/04/20 05:57:09;;;;;;;48.10;6.55;;;20.60;78.90;;;;;;4945914;29;20023;-74
2023/04/20 05:59:35;;;;;;;46.47;6.82;;;20.70;79.30;;;;;;4938416;28;20031;-75
2023/04/20 06:02:01;;;;;;;35.30;5.38;;;20.90;78.60;;;;;;4952037;29;20098;-74
2023/04/20 06:04:27;;;;;;;36.28;7.00;;;21.10;79.20;;;;;;4945730;29;20039;-75
2023/04/20 06:06:52;;;;;;;20.45;5.28;;;21.30;78.40;;;;;;4941301;29;20030;-74
2023/04/20 06:09:18;;;;;;;29.27;6.53;;;21.30;78.00;;;;;;4951493;28;20393;-75
2023/04/20 06:11:43;;;;;;;30.95;5.05;;;21.40;77.90;;;;;;4946495;29;20036;-74
2023/04/20 06:14:10;;;;;;;39.35;7.57;;;21.40;77.80;;;;;;4946247;29;20046;-75
2023/04/20 06:16:36;;;;;;;21.33;5.82;;;21.40;77.50;;;;;;4937198;28;20051;-76
2023/04/20 06:19:02;;;;;;;22.50;5.18;;;21.30;77.00;;;;;;4947976;28;20516;-75
2023/04/20 06:21:28;;;;;;;16.23;4.70;;;21.30;76.70;;;;;;4940286;29;20506;-75
2023/04/20 06:23:53;;;;;;;19.50;4.40;;;21.30;76.60;;;;;;4941585;28;20051;-74
2023/04/20 06:26:19;;;;;;;30.55;5.50;;;21.40;76.40;;;;;;4932277;29;20035;-74
2023/04/20 06:28:46;;;;;;;36.55;5.57;;;21.40;77.50;;;;;;4947179;29;20073;-74
2023/04/20 06:31:11;;;;;;;20.85;4.90;;;21.60;77.10;;;;;;4952294;29;20035;-73
2023/04/20 06:33:37;;;;;;;19.85;4.30;;;21.70;76.10;;;;;;4938887;29;20027;-75
2023/04/20 06:36:05;;;;;;;31.45;4.70;;;21.80;76.50;;;;;;4952351;29;20034;-75
2023/04/20 06:38:31;;;;;;;26.92;4.63;;;21.80;75.70;;;;;;4953986;28;20110;-76
2023/04/20 06:41:00;;;;;;;19.70;5.75;;;22.00;75.90;;;;;;4949361;29;20107;-77
2023/04/20 06:43:26;;;;;;;18.15;4.60;;;22.00;75.90;;;;;;4948806;29;20027;-75
2023/04/20 06:45:51;;;;;;;18.65;5.95;;;22.10;75.70;;;;;;4949436;28;20076;-74
2023/04/20 06:48:17;;;;;;;26.33;4.03;;;22.10;75.40;;;;;;4955860;28;20027;-76
2023/04/20 06:50:42;;;;;;;21.90;4.97;;;22.20;75.40;;;;;;4954863;29;20403;-75
2023/04/20 06:53:08;;;;;;;16.88;4.50;;;22.20;75.30;;;;;;4957259;29;20035;-77
2023/04/20 06:55:34;;;;;;;9.85;3.85;;;22.20;76.20;;;;;;4955153;29;20030;-76
2023/04/20 06:57:59;;;;;;;14.27;4.03;;;22.20;75.50;;;;;;4979756;28;20032;-75
2023/04/20 07:00:27;;;;;;;12.05;3.95;;;22.30;75.20;;;;;;4957709;29;20262;-75
2023/04/20 07:02:52;;;;;;;20.35;4.32;;;22.30;75.00;;;;;;4946423;28;20020;-75
2023/04/20 07:05:18;;;;;;;19.02;3.85;;;22.30;75.20;;;;;;4954726;29;20031;-76
2023/04/20 07:07:44;;;;;;;17.25;4.40;;;22.30;75.30;;;;;;4952879;29;20027;-76
2023/04/20 07:10:12;;;;;;;19.30;3.95;;;22.30;75.20;;;;;;4951089;29;20024;-78
2023/04/20 07:12:39;;;;;;;19.05;4.07;;;22.30;75.40;;;;;;4949401;28;20125;-78
2023/04/20 07:15:06;;;;;;;19.10;5.30;;;22.20;75.30;;;;;;4950660;29;20024;-77
2023/04/20 07:17:33;;;;;;;21.85;3.72;;;22.20;75.20;;;;;;4951575;29;20035;-75
2023/04/20 07:20:06;;;;;;;21.13;3.42;;;22.10;74.90;;;;;;4947820;29;20059;-77
2023/04/20 07:22:32;;;;;;;19.75;3.47;;;22.00;74.90;;;;;;4946113;29;20477;-75
2023/04/20 07:25:00;;;;;;;13.82;3.58;;;22.00;76.70;;;;;;4951025;29;20489;-76
2023/04/20 07:27:26;;;;;;;19.52;3.00;;;22.10;75.10;;;;;;4949459;28;20023;-76
2023/04/20 07:29:52;;;;;;;14.57;3.45;;;22.00;74.50;;;;;;4948986;28;20031;-77
2023/04/20 07:32:17;;;;;;;8.27;3.30;;;22.00;74.30;;;;;;4951060;29;20031;-76
2023/04/20 07:34:43;;;;;;;12.38;3.28;;;22.00;74.10;;;;;;4946450;29;20042;-76
2023/04/20 07:37:08;;;;;;;9.45;3.38;;;22.00;74.20;;;;;;4952328;29;20027;-77
2023/04/20 07:39:34;;;;;;;11.55;3.95;;;22.00;74.20;;;;;;4951183;28;20477;-77
2023/04/20 07:42:02;;;;;;;11.32;3.40;;;22.00;74.20;;;;;;4948304;29;20031;-76
2023/04/20 07:44:27;;;;;;;14.02;3.78;;;22.00;74.30;;;;;;4951502;28;20023;-76
2023/04/20 07:46:54;;;;;;;27.25;3.60;;;22.00;73.90;;;;;;4951785;29;20038;-78
2023/04/20 07:49:20;;;;;;;9.63;3.72;;;22.10;75.00;;;;;;4953145;28;20509;-79
2023/04/20 07:51:45;;;;;;;9.27;3.08;;;21.90;74.20;;;;;;4943034;29;20024;-80
2023/04/20 07:54:11;;;;;;;15.93;2.53;;;21.80;74.30;;;;;;4951102;29;20074;-79
2023/04/20 07:56:36;;;;;;;17.13;3.17;;;21.70;74.40;;;;;;4946833;28;20057;-77
2023/04/20 07:59:02;;;;;;;12.73;3.22;;;21.60;74.60;;;;;;4952018;28;20035;-77
2023/04/20 08:01:27;;;;;;;5.78;2.40;;;21.50;74.80;;;;;;4944519;29;20032;-78
2023/04/20 08:03:54;;;;;;;10.40;3.13;;;21.50;74.90;;;;;;4945888;28;20031;-76
2023/04/20 08:06:20;;;;;;;10.38;3.42;;;21.40;74.90;;;;;;4949935;29;20043;-79
2023/04/20 08:08:46;;;;;;;8.35;3.10;;;21.50;75.00;;;;;;4951161;29;20024;-78
2023/04/20 08:11:12;;;;;;;10.27;3.28;;;21.50;74.90;;;;;;4951134;29;20427;-76
2023/04/20 08:13:37;;;;;;;10.38;2.85;;;21.50;74.70;;;;;;4954892;28;20022;-77
2023/04/20 08:16:03;;;;;;;13.65;3.30;;;21.50;74.50;;;;;;4952018;29;20028;-77
2023/04/20 08:18:29;;;;;;;6.50;2.95;;;21.50;74.90;;;;;;4949441;29;20030;-77
2023/04/20 08:20:55;;;;;;;11.38;2.65;;;21.50;74.60;;;;;;4950422;29;20027;-79
2023/04/20 08:23:26;;;;;;;11.90;2.83;;;21.40;74.80;;;;;;4948778;29;20078;-78
2023/04/20 08:25:55;;;;;;;5.20;2.50;;;21.40;74.80;;;;;;4950544;29;20028;-78
2023/04/20 08:28:22;;;;;;;11.45;2.55;;;21.30;75.00;;;;;;4940702;29;20031;-77
2023/04/20 08:30:48;;;;;;;17.10;2.97;;;21.20;75.80;;;;;;4954138;29;20465;-76
2023/04/20 08:33:13;;;;;;;5.82;3.08;;;21.30;75.60;;;;;;4947112;29;20027;-77
2023/04/20 08:35:39;;;;;;;5.18;2.50;;;21.30;75.70;;;;;;4949075;29;20031;-79
2023/04/20 08:38:04;;;;;;;13.77;2.85;;;21.20;75.80;;;;;;4953524;28;20043;-80
2023/04/20 08:40:31;;;;;;;11.95;2.95;;;21.20;75.70;;;;;;4949727;29;20151;-79
2023/04/20 08:42:58;;;;;;;4.97;2.55;;;21.10;75.60;;;;;;4943988;29;20027;-79
2023/04/20 08:45:24;;;;;;;14.70;3.33;;;21.10;76.00;;;;;;4950940;28;20047;-79
2023/04/20 08:47:51;;;;;;;11.80;2.58;;;21.20;75.80;;;;;;4954395;28;20030;-78
2023/04/20 08:50:18;;;;;;;5.93;2.63;;;21.20;75.60;;;;;;4946039;28;20031;-79
2023/04/20 08:52:44;;;;;;;5.43;2.33;;;21.20;75.40;;;;;;4943068;29;20019;-78
2023/04/20 08:55:13;;;;;;;9.73;2.83;;;21.20;75.40;;;;;;4943750;29;20507;-79
2023/04/20 08:57:40;;;;;;;4.68;2.35;;;21.20;75.50;;;;;;4948666;28;20039;-79
2023/04/20 09:00:07;;;;;;;35.97;2.95;;;21.10;75.70;;;;;;4945784;28;20038;-78
2023/04/20 09:02:32;;;;;;;9.75;3.05;;;21.10;76.70;;;;;;4949571;29;20062;-78
2023/04/20 09:05:03;;;;;;;7.50;2.42;;;21.20;76.20;;;;;;4944834;29;20063;-78
2023/04/20 09:07:29;;;;;;;10.02;2.72;;;21.10;75.90;;;;;;4946465;28;20051;-78
2023/04/20 09:09:59;;;;;;;4.82;2.15;;;21.10;75.80;;;;;;4949625;28;20035;-78
2023/04/20 09:12:26;;;;;;;8.85;2.65;;;21.00;75.80;;;;;;4947701;28;20031;-78
2023/04/20 09:14:52;;;;;;;9.38;2.33;;;21.00;75.80;;;;;;4943520;29;20023;-78
2023/04/20 09:17:39;;;;;;;19.50;3.75;;;21.00;75.90;;;;;;4948137;28;20473;-80
2023/04/20 09:20:06;;;;;;;16.20;2.75;;;21.10;76.10;;;;;;4948735;29;20035;-79
2023/04/20 09:22:33;;;;;;;11.25;2.47;;;21.10;75.70;;;;;;4950632;28;20031;-79
2023/04/20 09:25:00;;;;;;;12.13;2.38;;;21.10;75.80;;;;;;4951210;29;20034;-79
2023/04/20 09:27:26;;;;;;;13.30;2.40;;;21.00;75.70;;;;;;4953427;28;20095;-80
2023/04/20 09:29:59;;;;;;;25.08;2.85;;;21.00;75.90;;;;;;4953716;29;20035;-79
2023/04/20 09:32:29;;;;;;;26.58;3.85;;;21.00;76.10;;;;;;4948217;29;20094;-80
2023/04/20 09:34:55;;;;;;;10.70;2.00;;;21.10;76.40;;;;;;4951835;29;20465;-77
2023/04/20 09:37:24;;;;;;;23.92;2.60;;;21.10;76.00;;;;;;4949783;29;20058;-78
2023/04/20 09:39:50;;;;;;;6.60;2.45;;;21.10;76.00;;;;;;4951437;28;20086;-77
2023/04/20 09:42:16;;;;;;;23.13;2.65;;;21.10;76.00;;;;;;4944779;29;20042;-75
2023/04/20 09:44:42;;;;;;;11.65;2.40;;;21.20;76.20;;;;;;4949294;29;20038;-75
2023/04/20 09:47:08;;;;;;;4.80;2.47;;;21.20;76.10;;;;;;4946794;29;20038;-78
2023/04/20 09:49:34;;;;;;;6.82;2.40;;;21.20;75.90;;;;;;4950203;28;20023;-76
2023/04/20 09:52:03;;;;;;;14.05;2.70;;;21.10;75.70;;;;;;4950200;29;20077;-73
2023/04/20 09:54:30;;;;;;;16.48;3.17;;;21.30;75.90;;;;;;4963595;28;20047;-74
2023/04/20 09:56:58;;;;;;;6.93;2.20;;;21.50;75.70;;;;;;4950720;29;20046;-73
2023/04/20 09:59:25;;;;;;;7.90;2.95;;;21.60;75.50;;;;;;4944444;28;20409;-74
2023/04/20 10:01:50;;;;;;;19.02;2.40;;;21.80;75.30;;;;;;4949901;29;20027;-74
2023/04/20 10:04:16;;;;;;;10.48;2.83;;;21.90;75.20;;;;;;4945429;29;20050;-77
2023/04/20 10:06:54;;;;;;;7.53;2.35;;;22.00;75.30;;;;;;4943576;29;20485;-76
2023/04/20 10:09:22;;;;;;;13.35;2.47;;;22.00;75.10;;;;;;4940949;28;20020;-75
2023/04/20 10:11:47;;;;;;;10.07;2.20;;;22.10;75.00;;;;;;4946748;29;20501;-73
2023/04/20 10:14:15;;;;;;;14.73;2.10;;;22.10;75.50;;;;;;4940276;29;20032;-73
2023/04/20 10:16:42;;;;;;;9.02;2.20;;;22.20;75.50;;;;;;4972799;28;20129;-74
2023/04/20 10:19:07;;;;;;;30.58;2.92;;;22.20;74.80;;;;;;4948198;28;20038;-73
2023/04/20 10:21:47;;;;;;;19.13;2.70;;;22.40;74.50;;;;;;4948929;28;20031;-73
2023/04/20 10:24:13;;;;;;;4.63;2.15;;;22.10;73.10;;;;;;4943686;28;20074;-74
2023/04/20 10:26:46;;;;;;;34.75;3.85;;;21.90;73.60;;;;;;4946263;28;20126;-72
2023/04/20 10:29:25;;;;;;;21.95;2.72;;;21.80;74.10;;;;;;4940806;28;20034;-76
2023/04/20 10:31:52;;;;;;;10.35;2.67;;;21.90;74.00;;;;;;4940661;29;20028;-75
2023/04/20 10:34:31;;;;;;;22.85;2.47;;;22.00;73.60;;;;;;4945968;29;20023;-75
2023/04/20 10:37:09;;;;;;;32.67;2.70;;;22.00;73.50;;;;;;4946690;29;20051;-76
2023/04/20 10:39:42;;;;;;;12.20;2.55;;;22.00;73.30;;;;;;4942789;28;20055;-74
2023/04/20 10:42:08;;;;;;;11.82;2.03;;;22.10;73.40;;;;;;4945571;28;20036;-74
2023/04/20 10:44:34;;;;;;;11.02;2.30;;;22.10;73.30;;;;;;4943783;29;20034;-75
2023/04/20 10:47:00;;;;;;;8.07;2.20;;;22.10;73.30;;;;;;4945278;28;20588;-74
2023/04/20 10:49:28;;;;;;;10.55;2.25;;;22.10;73.20;;;;;;4943313;28;20039;-74
2023/04/20 10:51:54;;;;;;;13.20;2.72;;;22.20;73.30;;;;;;4942596;29;20027;-75
2023/04/20 10:54:20;;;;;;;9.77;2.03;;;22.20;73.30;;;;;;4942406;29;20028;-73
2023/04/20 10:56:48;;;;;;;9.93;2.15;;;22.20;73.20;;;;;;4943324;28;20114;-75
2023/04/20 10:59:16;;;;;;;8.52;1.85;;;22.10;73.20;;;;;;4943840;28;20051;-73
2023/04/20 11:01:43;;;;;;;8.05;2.05;;;22.10;73.20;;;;;;4942886;28;20035;-74
2023/04/20 11:04:10;;;;;;;8.15;2.40;;;22.10;73.30;;;;;;4946180;28;20047;-74
2023/04/20 11:06:38;;;;;;;6.72;1.67;;;22.10;73.30;;;;;;4949456;29;20505;-74
2023/04/20 11:09:15;;;;;;;4.03;1.77;;;22.10;73.50;;;;;;4942440;29;20015;-75
2023/04/20 11:11:41;;;;;;;6.20;2.03;;;22.10;73.50;;;;;;4941728;29;20113;-75
2023/04/20 11:14:08;;;;;;;2.78;1.55;;;22.10;73.50;;;;;;4943721;29;20510;-75
2023/04/20 11:16:35;;;;;;;2.70;1.63;;;22.10;73.60;;;;;;4946925;29;20505;-74
2023/04/20 11:19:02;;;;;;;4.97;1.98;;;22.10;73.50;;;;;;4947847;28;20241;-74
2023/04/20 11:21:54;;;;;;;3.58;1.80;;;22.10;73.50;;;;;;4945858;29;20110;-74
2023/04/20 11:24:21;;;;;;;6.70;2.05;;;22.10;73.50;;;;;;4945987;29;20114;-73
2023/04/20 11:26:49;;;;;;;6.50;1.70;;;22.10;73.50;;;;;;4946853;28;20038;-73
2023/04/20 11:29:36;;;;;;;3.08;1.70;;;22.20;73.60;;;;;;4948640;28;20043;-74
2023/04/20 11:32:09;;;;;;;4.05;1.45;;;22.10;73.50;;;;;;4969294;28;20023;-73
2023/04/20 11:34:36;;;;;;;2.80;1.70;;;22.10;73.50;;;;;;4952851;29;20054;-74
2023/04/20 11:37:11;;;;;;;7.05;1.98;;;22.10;73.50;;;;;;4952741;29;20077;-74
2023/04/20 11:39:37;;;;;;;4.22;1.83;;;22.10;73.50;;;;;;4952391;28;20054;-74
2023/04/20 11:42:04;;;;;;;2.60;1.60;;;22.10;73.50;;;;;;4954182;29;20525;-75
2023/04/20 11:44:30;;;;;;;2.83;1.38;;;22.10;73.60;;;;;;4953834;28;20429;-76
2023/04/20 11:46:56;;;;;;;11.50;1.73;;;22.10;73.50;;;;;;4950399;28;20034;-74
2023/04/20 11:49:23;;;;;;;3.28;1.35;;;22.20;73.70;;;;;;4954172;28;20420;-73
2023/04/20 11:51:49;;;;;;;5.30;2.42;;;22.10;73.70;;;;;;4950847;29;20042;-74
2023/04/20 11:54:17;;;;;;;2.75;1.35;;;22.10;73.70;;;;;;4953901;28;20114;-74
2023/04/20 11:56:43;;;;;;;5.80;2.25;;;22.10;73.80;;;;;;4953767;28;20038;-71
2023/04/20 11:59:10;;;;;;;3.67;1.83;;;22.10;73.70;;;;;;4946927;29;20038;-74
2023/04/20 12:01:36;;;;;;;4.78;1.80;;;22.10;73.70;;;;;;4953296;29;20042;-72
2023/04/20 12:04:03;;;;;;;3.25;1.48;;;22.10;73.70;;;;;;4951876;29;20039;-74
2023/04/20 12:06:30;;;;;;;3.53;1.67;;;22.10;73.70;;;;;;4952790;29;20676;-74
2023/04/20 12:08:56;;;;;;;4.40;1.60;;;22.10;73.70;;;;;;4953350;28;20027;-74
2023/04/20 12:11:22;;;;;;;3.10;1.50;;;22.10;73.50;;;;;;4952184;29;20090;-71
2023/04/20 12:13:47;;;;;;;2.15;1.48;;;22.10;73.50;;;;;;4953539;29;20062;-74
2023/04/20 12:16:13;;;;;;;2.63;1.35;;;22.20;73.70;;;;;;4953370;28;20047;-73
2023/04/20 12:18:39;;;;;;;1.92;1.30;;;22.20;73.60;;;;;;4949580;28;20038;-72
2023/04/20 12:21:04;;;;;;;3.03;1.48;;;22.20;73.70;;;;;;4953641;29;20031;-71
2023/04/20 12:23:31;;;;;;;3.70;1.60;;;22.20;73.60;;;;;;4952461;28;20074;-75
2023/04/20 12:25:57;;;;;;;1.75;1.38;;;22.20;73.60;;;;;;4951214;29;20042;-73
2023/04/20 12:28:23;;;;;;;2.08;1.60;;;22.20;73.70;;;;;;4950904;29;20077;-74
2023/04/20 12:30:48;;;;;;;2.42;1.35;;;22.20;73.70;;;;;;4950644;29;20034;-73
2023/04/20 12:33:14;;;;;;;2.25;1.20;;;22.20;73.60;;;;;;4949643;29;20036;-76
2023/04/20 12:35:39;;;;;;;1.85;1.17;;;22.20;73.60;;;;;;4949612;29;20030;-74
2023/04/20 12:38:05;;;;;;;3.65;1.40;;;22.20;73.60;;;;;;4950451;29;20039;-74